Tiempo atmosférico en la estación meteorológica de Alosno, Huelva (276 m.)



Fecha
DESCASC
Temp. máxima en grados centígrados (hora)
DESCASC
Temp. mínima en grados centígrados (hora)
DESCASC
Temp. media en grados centígrados
DESCASC
Racha de viento máxima en m/sg (hora)
DESCASC
Velocidad máxima media en intervalos de 10 minutos(hora)
DESCASC
Precipitaciones diarias en mm
DESCASC
Precipitaciones de 00:00 a 06:00 en mm
DESCASC
Precipitaciones de 06:00 a 12:00 en mm
DESCASC
Precipitaciones de 12:00 a 18:00 en mm
DESCASC
Precipitaciones de 18:00 a 24:00 en mm
DESCASC

Gráficas

Temp. máximas Temp. mínimas Temp. medias Precipitaciones Rachas de viento máximas Velocidades máximas media en intervalos de 10 minutos

Datos horarios

Fecha y hora oficial Temperatura (ºC) Velocidad del viento (km/h) Dirección del viento Racha (km/h) Dirección de racha Precipitación (mm) Presión (hPa) Tendencia (hPa) Humedad (%)
2018-01-19 23:00:00 11.9 12 Noroeste 26 Norte 0 -- -- 68
2018-01-19 22:00:00 13 10 Norte 25 Noroeste 0 -- -- 65
2018-01-19 21:00:00 13.2 17 Norte 25 Noroeste 0 -- -- 64
2018-01-19 20:00:00 13.3 7 Norte 21 Noroeste 0 -- -- 64
2018-01-19 19:00:00 14.2 12 Noroeste 21 Noroeste 0 -- -- 60
2018-01-19 18:00:00 16.5 13 Noroeste 23 Noroeste 0 -- -- 54
2018-01-19 17:00:00 17.4 15 Noroeste 22 Noroeste 0 -- -- 53
2018-01-19 16:00:00 17.5 13 Oeste 21 Noroeste 0 -- -- 52
2018-01-19 15:00:00 16.8 9 Oeste 18 Noroeste 0 -- -- 52
2018-01-19 14:00:00 15.7 9 Noroeste 22 Noroeste 0 -- -- 55
2018-01-19 13:00:00 13.8 17 Noroeste 29 Noroeste 0 -- -- 60
2018-01-19 12:00:00 11.3 15 Noroeste 19 Noroeste 0 -- -- 73
2018-01-19 11:00:00 8.4 12 Oeste 22 Noroeste 0 -- -- 85
2018-01-19 10:00:00 6.3 9 Oeste 20 Oeste 0 -- -- 90
2018-01-19 09:00:00 5.5 6 Oeste 15 Noroeste 0 -- -- 90
2018-01-19 08:00:00 5.6 5 Oeste 13 Oeste 0 -- -- 89
2018-01-19 07:00:00 6.1 6 Oeste 15 Noroeste 0 -- -- 87
2018-01-19 06:00:00 6.8 5 Oeste 16 Noroeste 0 -- -- 84
2018-01-19 05:00:00 7.8 9 Noroeste 13 Noroeste 0 -- -- 80
2018-01-19 04:00:00 8.8 2 Norte 11 Noroeste 0 -- -- 75
2018-01-19 03:00:00 7.9 12 Noroeste 19 Noroeste 0 -- -- 83
2018-01-19 02:00:00 10 6 Norte 13 Noroeste 0 -- -- 76
2018-01-19 01:00:00 9.8 9 Noroeste 12 Noroeste 0 -- -- 81
2018-01-19 00:00:00 10.6 7 Noroeste 11 Noroeste 0 -- -- 78
2018-01-18 23:00:00 11.1 4 Oeste 9 Noroeste 0 -- -- 75
2018-01-18 22:00:00 11.9 4 Oeste 6 Sudoeste 0 -- -- 71
2018-01-18 21:00:00 12.6 3 Sudoeste 10 Sudoeste 0 -- -- 66
2018-01-18 20:00:00 13.2 8 Sudoeste 14 Sur 0 -- -- 65
2018-01-18 19:00:00 15.1 12 Sur 19 Sur 0 -- -- 58
2018-01-18 18:00:00 16.4 4 Oeste 17 Noroeste 0 -- -- 56
2018-01-18 17:00:00 17.7 12 Noroeste 22 Noroeste 0 -- -- 48
2018-01-18 16:00:00 19.2 6 Este 13 Nordeste 0 -- -- 39
2018-01-18 15:00:00 18.4 5 Nordeste 14 Sur 0 -- -- 41
2018-01-18 14:00:00 17.6 5 Nordeste 13 Este 0 -- -- 44
2018-01-18 13:00:00 16.9 5 Este 17 Este 0 -- -- 46
2018-01-18 12:00:00 15.6 8 Este 15 Este 0 -- -- 49
2018-01-18 11:00:00 12.9 0 Calma 7 Norte 0 -- -- 60
2018-01-18 10:00:00 9.4 4 Noroeste 5 Noroeste 0 -- -- 76
2018-01-18 09:00:00 6.3 2 Oeste 8 Oeste 0 -- -- 89
2018-01-18 08:00:00 6.4 4 Oeste 10 Noroeste 0 -- -- 89
2018-01-18 07:00:00 6.7 8 Noroeste 11 Noroeste 0 -- -- 89
2018-01-18 06:00:00 9.1 2 Norte 6 Este 0 -- -- 66
2018-01-18 05:00:00 8.8 0 Calma 7 Este 0 -- -- 71
2018-01-18 04:00:00 8.4 7 Nordeste 10 Norte 0 -- -- 78
2018-01-18 03:00:00 8.3 5 Norte 12 Oeste 0 -- -- 80
2018-01-18 02:00:00 8.4 5 Oeste 10 Oeste 0 -- -- 84
2018-01-18 01:00:00 9.1 4 Oeste 8 Noroeste 0 -- -- 80
2018-01-18 00:00:00 10.3 4 Oeste 12 Norte 0 -- -- 72
2018-01-17 23:00:00 11.2 10 Norte 18 Norte 0 -- -- 68
2018-01-17 22:00:00 11.6 10 Norte 14 Norte 0 -- -- 67
2018-01-17 21:00:00 12.4 6 Norte 14 Norte 0 -- -- 69
2018-01-17 20:00:00 12.9 5 Norte 18 Norte 0 -- -- 72
2018-01-17 19:00:00 14.6 13 Norte 19 Norte 0 -- -- 67
2018-01-17 18:00:00 17.3 12 Norte 24 Norte 0 -- -- 54
2018-01-17 17:00:00 18.2 14 Nordeste 26 Norte 0 -- -- 51
2018-01-17 16:00:00 18.4 15 Norte 26 Norte 0 -- -- 51
2018-01-17 15:00:00 17.3 17 Norte 35 Norte 0 -- -- 57
2018-01-17 14:00:00 16.2 20 Norte 37 Norte 0 -- -- 60
2018-01-17 13:00:00 15 19 Norte 34 Norte 0 -- -- 66
2018-01-17 12:00:00 12.3 17 Noroeste 31 Noroeste 0 -- -- 85
2018-01-17 11:00:00 11.3 16 Noroeste 26 Noroeste 0 -- -- 90
2018-01-17 10:00:00 10.1 16 Norte 23 Noroeste 0 -- -- 95
2018-01-17 09:00:00 9.3 16 Norte 24 Norte 0 -- -- 96
2018-01-17 08:00:00 9.5 9 Noroeste 22 Norte 0 -- -- 98
2018-01-17 07:00:00 9.8 15 Norte 22 Norte 0 -- -- 98
2018-01-17 06:00:00 9.9 5 Noroeste 17 Norte 0 -- -- 97
2018-01-17 05:00:00 10.8 11 Norte 26 Norte 0 -- -- 95
2018-01-17 04:00:00 10.8 12 Norte 24 Norte 0 -- -- 96
2018-01-17 03:00:00 10.8 17 Norte 27 Norte 0 -- -- 97
2018-01-17 02:00:00 9.8 9 Noroeste 16 Norte 0 -- -- 98
2018-01-17 01:00:00 9.9 5 Noroeste 17 Noroeste 0 -- -- 97
2018-01-17 00:00:00 10.8 8 Noroeste 17 Noroeste 0 -- -- 95
2018-01-16 23:00:00 11.4 9 Noroeste 27 Norte 0 -- -- 94
2018-01-16 22:00:00 11.6 20 Norte 36 Norte 0 -- -- 93
2018-01-16 21:00:00 11.8 23 Norte 44 Norte 0 -- -- 90
2018-01-16 20:00:00 11.8 24 Norte 40 Norte 0 -- -- 89
2018-01-16 19:00:00 12 22 Norte 37 Norte 0 -- -- 87
2018-01-16 18:00:00 12.3 19 Norte 33 Norte 0 -- -- 84
2018-01-16 17:00:00 14.1 21 Norte 33 Norte 0 -- -- 75
2018-01-16 16:00:00 14.8 17 Norte 30 Norte 0 -- -- 73
2018-01-16 15:00:00 14.8 15 Noroeste 25 Noroeste 0 -- -- 69
2018-01-16 14:00:00 13.7 14 Norte 22 Noroeste 0 -- -- 67
2018-01-16 13:00:00 12.6 8 Noroeste 14 Noroeste 0 -- -- 59
2018-01-16 12:00:00 11 9 Noroeste 14 Noroeste 0 -- -- 62
2018-01-16 11:00:00 7.8 7 Noroeste 11 Noroeste 0 -- -- 75
2018-01-16 10:00:00 6.6 2 Oeste 8 Noroeste 0 -- -- 82
2018-01-16 09:00:00 4.8 4 Noroeste 6 Noroeste 0 -- -- 84
2018-01-16 08:00:00 5.5 0 Calma 3 Sudeste 0 -- -- 78
2018-01-16 07:00:00 5.8 0 Calma 5 Noroeste 0 -- -- 76
2018-01-16 06:00:00 5.2 2 Noroeste 6 Noroeste 0 -- -- 82
2018-01-16 05:00:00 5.5 4 Noroeste 8 Noroeste 0 -- -- 81
2018-01-16 04:00:00 6.7 2 Este 5 Sudeste 0 -- -- 72
2018-01-16 03:00:00 6.3 3 Noroeste 6 Noroeste 0 -- -- 77
2018-01-16 02:00:00 6.9 0 Calma 6 Noroeste 0 -- -- 76
2018-01-16 01:00:00 7.8 5 Norte 8 Norte 0 -- -- 69
2018-01-16 00:00:00 7.7 2 Nordeste 9 Norte 0 -- -- 73
2018-01-15 23:00:00 7.9 6 Norte 9 Norte 0 -- -- 72
2018-01-15 22:00:00 8.1 5 Norte 9 Nordeste 0 -- -- 72
2018-01-15 21:00:00 8.4 6 Noroeste 13 Noroeste 0 -- -- 72
2018-01-15 20:00:00 9.2 6 Noroeste 13 Norte 0 -- -- 69
2018-01-15 19:00:00 10.8 7 Norte 15 Norte 0 -- -- 60
2018-01-15 18:00:00 13 11 Norte 22 Nordeste 0 -- -- 50
2018-01-15 17:00:00 13.9 11 Norte 20 Norte 0 -- -- 47
2018-01-15 16:00:00 14.3 9 Nordeste 22 Norte 0 -- -- 45
2018-01-15 15:00:00 13.8 9 Nordeste 21 Este 0 -- -- 46
2018-01-15 14:00:00 13.1 12 Nordeste 22 Nordeste 0 -- -- 44
2018-01-15 13:00:00 11.9 10 Norte 17 Norte 0 -- -- 54
2018-01-15 12:00:00 9.5 8 Norte 13 Noroeste 0 -- -- 68
2018-01-15 11:00:00 6.4 9 Noroeste 13 Noroeste 0 -- -- 84
2018-01-15 10:00:00 6.4 3 Nordeste 8 Norte 0 -- -- 81
2018-01-15 09:00:00 4.3 6 Norte 11 Norte 0 -- -- 83
2018-01-15 08:00:00 4 7 Nordeste 10 Nordeste 0 -- -- 84
2018-01-15 07:00:00 4 6 Norte 12 Norte 0 -- -- 84
2018-01-15 06:00:00 2.7 2 Norte 11 Noroeste 0 -- -- 92
2018-01-15 05:00:00 3.6 4 Noroeste 12 Norte 0 -- -- 89
2018-01-15 04:00:00 3.6 4 Noroeste 9 Noroeste 0 -- -- 91
2018-01-15 03:00:00 5 6 Norte 10 Norte 0 -- -- 83
2018-01-15 02:00:00 4.6 6 Norte 8 Noroeste 0 -- -- 88
2018-01-15 01:00:00 5.3 5 Noroeste 10 Norte 0 -- -- 85
2018-01-15 00:00:00 5.7 3 Norte 13 Noroeste 0 -- -- 83
2018-01-14 23:00:00 6.1 8 Noroeste 12 Noroeste 0 -- -- 82
2018-01-14 22:00:00 6 5 Noroeste 13 Noroeste 0 -- -- 81
2018-01-14 21:00:00 7 6 Noroeste 11 Noroeste 0 -- -- 78
2018-01-14 20:00:00 7.4 6 Noroeste 12 Norte 0 -- -- 76
2018-01-14 19:00:00 8.5 6 Norte 18 Norte 0 -- -- 75
2018-01-14 18:00:00 9.8 10 Norte 27 Noroeste 0 -- -- 68
2018-01-14 17:00:00 10.4 12 Norte 27 Norte 0 -- -- 65
2018-01-14 16:00:00 10.3 14 Noroeste 31 Noroeste 0 -- -- 70
2018-01-14 15:00:00 9.9 10 Norte 27 Noroeste 0 -- -- 72
2018-01-14 14:00:00 10 15 Noroeste 28 Noroeste 0 -- -- 71
2018-01-14 13:00:00 9.2 19 Norte 28 Norte 0 -- -- 77
2018-01-14 12:00:00 8.4 14 Noroeste 26 Noroeste 0 -- -- 89
2018-01-14 11:00:00 6.8 10 Noroeste 18 Noroeste 0 -- -- 99
2018-01-14 10:00:00 6.5 8 Noroeste 13 Noroeste 0 -- -- 100
2018-01-14 09:00:00 6.4 6 Noroeste 21 Noroeste 0.4 -- -- 99
2018-01-14 08:00:00 6.9 6 Noroeste 17 Oeste 0 -- -- 96
2018-01-14 07:00:00 7 8 Oeste 13 Oeste 0 -- -- 96
2018-01-14 06:00:00 6.9 5 Noroeste 10 Oeste 0 -- -- 95
2018-01-14 05:00:00 7.3 6 Oeste 12 Oeste 0 -- -- 94
2018-01-14 04:00:00 7.3 7 Noroeste 22 Oeste 0.8 -- -- 96
2018-01-14 03:00:00 8 9 Oeste 12 Oeste 0 -- -- 92
2018-01-14 02:00:00 7.9 8 Oeste 14 Oeste 0 -- -- 92
2018-01-14 01:00:00 7.8 8 Oeste 12 Oeste 0 -- -- 92
2018-01-14 00:00:00 7.9 8 Oeste 12 Oeste 0 -- -- 92
2018-01-13 23:00:00 8.2 11 Oeste 15 Oeste 0 -- -- 90
2018-01-13 22:00:00 8.3 11 Oeste 17 Oeste 0 -- -- 90
2018-01-13 21:00:00 8.7 9 Oeste 14 Oeste 0 -- -- 86
2018-01-13 20:00:00 9.3 9 Oeste 15 Noroeste 0 -- -- 81
2018-01-13 19:00:00 10.2 10 Noroeste 22 Oeste 0 -- -- 78
2018-01-13 18:00:00 11.7 13 Oeste 29 Noroeste 0 -- -- 71
2018-01-13 17:00:00 12.5 19 Noroeste 35 Noroeste 0 -- -- 68
2018-01-13 16:00:00 12.4 19 Noroeste 31 Noroeste 0 -- -- 70
2018-01-13 15:00:00 11 8 Noroeste 19 Noroeste 0 -- -- 89
2018-01-13 14:00:00 9.1 11 Noroeste 18 Noroeste 0 -- -- 96
2018-01-13 13:00:00 7.5 0 Calma 19 Sur 0.2 -- -- 100
2018-01-13 12:00:00 6.8 12 Sur 34 Sudeste 2.2 -- -- 99
2018-01-13 11:00:00 6.2 21 Sudeste 36 Sudeste 1.8 -- -- 98
2018-01-13 10:00:00 5.9 16 Sudeste 24 Sudeste 0.6 -- -- 97
2018-01-13 09:00:00 6.2 12 Sudeste 21 Sur 0.8 -- -- 94
2018-01-13 08:00:00 7 12 Sudeste 20 Sur 0 -- -- 86
2018-01-13 07:00:00 6.8 6 Sudeste 15 Sudeste 0 -- -- 86
2018-01-13 06:00:00 6.3 3 Sudeste 8 Sudeste 0 -- -- 89
2018-01-13 05:00:00 6.1 0 Calma 4 Este 0 -- -- 89
2018-01-13 04:00:00 6.3 0 Calma 8 Este 0 -- -- 87
2018-01-13 03:00:00 6.8 0 Calma 4 Sudoeste 0 -- -- 85
2018-01-13 02:00:00 6.9 0 Calma 4 Sudoeste 0 -- -- 84
2018-01-13 01:00:00 7.4 0 Calma 10 Oeste 0 -- -- 79
2018-01-13 00:00:00 7.5 0 Calma 6 Sudoeste 0 -- -- 76
2018-01-12 23:00:00 8 3 Este 6 Sur 0 -- -- 71
2018-01-12 22:00:00 8.1 0 Calma 2 Este 0 -- -- 76
2018-01-12 21:00:00 8.5 2 Sudoeste 4 Oeste 0 -- -- 68
2018-01-12 20:00:00 8.6 2 Oeste 8 Oeste 0 -- -- 72
2018-01-12 19:00:00 9.1 6 Noroeste 12 Oeste 0 -- -- 68
2018-01-12 18:00:00 10.8 5 Noroeste 9 Noroeste 0 -- -- 68
2018-01-12 17:00:00 11.7 4 Noroeste 11 Noroeste 0 -- -- 63
2018-01-12 16:00:00 12.1 5 Oeste 9 Oeste 0 -- -- 57
2018-01-12 15:00:00 11.6 4 Sur 12 Sudoeste 0 -- -- 59
2018-01-12 14:00:00 11.9 6 Sudoeste 14 Sur 0 -- -- 58
2018-01-12 13:00:00 -- 11 Sur 16 Sur 0 -- -- --
2018-01-12 12:00:00 10.1 7 Sudeste 14 Sudeste 0 -- -- 65
2018-01-12 11:00:00 7.2 6 Este 9 Este 0 -- -- 83
2018-01-12 10:00:00 5.5 3 Este 8 Este 0 -- -- 90
2018-01-12 09:00:00 3.6 5 Nordeste 7 Nordeste 0 -- -- 99
2018-01-12 08:00:00 3 3 Oeste 12 Noroeste 0 -- -- 100
2018-01-12 07:00:00 3.8 7 Noroeste 10 Noroeste 0 -- -- 98
2018-01-12 06:00:00 4.4 5 Norte 7 Norte 0 -- -- 95
2018-01-12 05:00:00 4.6 2 Norte 11 Noroeste 0 -- -- 96
2018-01-12 04:00:00 5.3 8 Noroeste 14 Norte 0 -- -- 93
2018-01-12 03:00:00 5.2 7 Noroeste 9 Noroeste 0 -- -- 97
2018-01-12 02:00:00 5.8 6 Norte 11 Noroeste 0 -- -- 99
2018-01-12 01:00:00 6.5 7 Noroeste 14 Noroeste 0 -- -- 98
2018-01-12 00:00:00 6.9 10 Noroeste 14 Noroeste 0 -- -- 98
2018-01-11 23:00:00 7.9 9 Noroeste 14 Noroeste 0 -- -- 95
2018-01-11 22:00:00 8 8 Noroeste 13 Noroeste 0 -- -- 94
2018-01-11 21:00:00 8.8 6 Noroeste 11 Noroeste 0 -- -- 90
2018-01-11 20:00:00 9.5 7 Noroeste 14 Noroeste 0 -- -- 87
2018-01-11 19:00:00 10.5 7 Noroeste 24 Noroeste 0 -- -- 80
2018-01-11 18:00:00 12.3 14 Noroeste 32 Noroeste 0 -- -- 72
2018-01-11 17:00:00 12.7 19 Noroeste 36 Noroeste 0 -- -- 69
2018-01-11 16:00:00 12.8 24 Noroeste 36 Noroeste 0 -- -- 71
2018-01-11 15:00:00 13.3 22 Noroeste 37 Noroeste 0 -- -- 68
2018-01-11 14:00:00 12.6 17 Noroeste 38 Noroeste 0 -- -- 72
2018-01-11 13:00:00 11.8 22 Noroeste 36 Noroeste 0 -- -- 78
2018-01-11 12:00:00 10.2 18 Noroeste 27 Noroeste 0 -- -- 85
2018-01-11 11:00:00 8.4 13 Noroeste 21 Noroeste 0 -- -- 91
2018-01-11 10:00:00 7.4 12 Noroeste 19 Oeste 0 -- -- 91
2018-01-11 09:00:00 6.5 7 Oeste 14 Oeste 0.2 -- -- 93
2018-01-11 08:00:00 6.3 8 Oeste 14 Oeste 0 -- -- 95
2018-01-11 07:00:00 5.8 7 Oeste 12 Oeste 0 -- -- 99
2018-01-11 06:00:00 5.7 8 Noroeste 13 Noroeste 0 -- -- 99
2018-01-11 05:00:00 6 9 Noroeste 13 Noroeste 0 -- -- 99
2018-01-11 04:00:00 6 7 Noroeste 10 Noroeste 0 -- -- 98
2018-01-11 03:00:00 6.4 8 Noroeste 14 Noroeste 0 -- -- 97
2018-01-11 02:00:00 6.6 8 Noroeste 13 Oeste 0 -- -- 97
2018-01-11 01:00:00 6.9 8 Noroeste 15 Noroeste 0 -- -- 96
2018-01-11 00:00:00 8 11 Noroeste 18 Noroeste 0 -- -- 93
2018-01-10 23:00:00 8.6 12 Noroeste 21 Noroeste 0 -- -- 94
2018-01-10 22:00:00 9.5 12 Noroeste 21 Oeste 0 -- -- 95
2018-01-10 21:00:00 9.7 10 Noroeste 23 Noroeste 0 -- -- 97
2018-01-10 20:00:00 10.5 12 Noroeste 26 Oeste 0 -- -- 93
2018-01-10 19:00:00 11.5 15 Noroeste 35 Oeste 0 -- -- 86
2018-01-10 18:00:00 12.6 24 Oeste 43 Noroeste 0.2 -- -- 90
2018-01-10 17:00:00 15.3 20 Oeste 40 Oeste 0 -- -- 67
2018-01-10 16:00:00 16.2 14 Oeste 39 Oeste 0 -- -- 67
2018-01-10 15:00:00 16 15 Oeste 37 Oeste 0 -- -- 69
2018-01-10 14:00:00 14.9 16 Noroeste 31 Oeste 0 -- -- 74
2018-01-10 13:00:00 14.9 12 Oeste 26 Oeste 0 -- -- 84
2018-01-10 12:00:00 13.2 13 Oeste 26 Oeste 0 -- -- 90
2018-01-10 11:00:00 11.7 12 Sudoeste 18 Oeste 0 -- -- 100
2018-01-10 10:00:00 10.4 8 Oeste 12 Sudoeste 0 -- -- 100
2018-01-10 09:00:00 9.7 6 Sudoeste 10 Oeste 0 -- -- 100
2018-01-10 08:00:00 9.4 5 Sudoeste 10 Oeste 0 -- -- 100
2018-01-10 07:00:00 9 8 Oeste 14 Noroeste 0 -- -- 100
2018-01-10 06:00:00 8.8 6 Noroeste 17 Noroeste 0 -- -- 100
2018-01-10 05:00:00 8.7 14 Noroeste 24 Noroeste 0 -- -- 100
2018-01-10 04:00:00 8.7 15 Noroeste 25 Noroeste 0 -- -- 100
2018-01-10 03:00:00 9.3 17 Noroeste 31 Noroeste 0 -- -- 100
2018-01-10 02:00:00 10.1 16 Noroeste 33 Noroeste 0 -- -- 100
2018-01-10 01:00:00 10.6 16 Noroeste 28 Noroeste 0 -- -- 100
2018-01-10 00:00:00 10.8 14 Noroeste 21 Oeste 0 -- -- 100
2018-01-09 23:00:00 10 3 Oeste 10 Nordeste 0.2 -- -- 100
2018-01-09 22:00:00 10.2 7 Norte 15 Norte 0.2 -- -- 100
2018-01-09 21:00:00 10.9 7 Noroeste 28 Sudeste 0.6 -- -- 100
2018-01-09 20:00:00 10.7 21 Sudeste 33 Sur 1.2 -- -- 100
2018-01-09 19:00:00 9.5 17 Sur 24 Sur 0.4 -- -- 100
2018-01-09 18:00:00 8.3 12 Sudeste 27 Sudeste 1.8 -- -- 100
2018-01-09 17:00:00 7.7 12 Sudeste 27 Este 1.8 -- -- 100
2018-01-09 16:00:00 7.3 12 Sudeste 26 Sudeste 2.2 -- -- 100
2018-01-09 15:00:00 7.3 13 Sur 26 Este 2 -- -- 100
2018-01-09 14:00:00 6.7 14 Este 25 Este 1 -- -- 100
2018-01-09 13:00:00 6.1 19 Sudeste 26 Sudeste 1.8 -- -- 98
2018-01-09 12:00:00 5.5 13 Sudeste 29 Este 0.4 -- -- 95
2018-01-09 11:00:00 5.5 14 Sudeste 27 Sudeste 0 -- -- 89
2018-01-09 10:00:00 5.4 14 Sudeste 23 Sudeste 0 -- -- 87
2018-01-09 09:00:00 4.9 18 Sudeste 21 Este 0 -- -- 82
2018-01-09 08:00:00 4 8 Sudeste 13 Sudeste 0 -- -- 88
2018-01-09 07:00:00 3.4 3 Nordeste 6 Este 0 -- -- 90
2018-01-09 06:00:00 4.2 3 Sudeste 6 Sur 0 -- -- 87
2018-01-09 05:00:00 4.2 6 Sur 8 Sur 0 -- -- 87
2018-01-09 04:00:00 4.1 3 Sur 5 Este 0 -- -- 90
2018-01-09 03:00:00 3.8 4 Este 8 Este 0 -- -- 92
2018-01-09 02:00:00 5.1 2 Sudoeste 3 Sudoeste 0 -- -- 84
2018-01-09 01:00:00 5.3 2 Noroeste 6 Noroeste 0 -- -- 85
2018-01-09 00:00:00 5.3 5 Oeste 9 Noroeste 0 -- -- 84
2018-01-08 23:00:00 5.5 4 Oeste 9 Noroeste 0 -- -- 82
2018-01-08 22:00:00 5.5 3 Sudoeste 5 Norte 0 -- -- 83
2018-01-08 21:00:00 6.3 5 Nordeste 8 Nordeste 0 -- -- 78
2018-01-08 20:00:00 6.8 4 Norte 9 Nordeste 0 -- -- 77
2018-01-08 19:00:00 7.6 5 Norte 19 Norte 0 -- -- 75
2018-01-08 18:00:00 9.4 6 Noroeste 12 Norte 0 -- -- 71
2018-01-08 17:00:00 9.8 8 Norte 14 Norte 0 -- -- 67
2018-01-08 16:00:00 9.8 7 Noroeste 20 Norte 0 -- -- 68
2018-01-08 15:00:00 10.3 4 Este 18 Norte 0 -- -- 68
2018-01-08 14:00:00 8.6 10 Nordeste 21 Nordeste 0 -- -- 74
2018-01-08 13:00:00 8.1 13 Este 29 Nordeste 0 -- -- 77
2018-01-08 12:00:00 7.1 13 Nordeste 19 Nordeste 0 -- -- 84
2018-01-08 11:00:00 5.3 6 Noroeste 12 Noroeste 0 -- -- 94
2018-01-08 10:00:00 5.3 6 Norte 13 Norte 0 -- -- 98
2018-01-08 09:00:00 3.9 0 Calma 11 Noroeste 0 -- -- 100
2018-01-08 08:00:00 4 10 Noroeste 14 Noroeste 0 -- -- 98
2018-01-08 07:00:00 4.4 5 Nordeste 8 Nordeste 0 -- -- 98
2018-01-08 06:00:00 4.9 4 Nordeste 7 Nordeste 0.8 -- -- 95
2018-01-08 05:00:00 4.9 4 Noroeste 9 Noroeste 0.6 -- -- 96
2018-01-08 04:00:00 5 7 Noroeste 14 Noroeste 0.2 -- -- 94
2018-01-08 03:00:00 5.4 7 Noroeste 16 Oeste 0 -- -- 90
2018-01-08 02:00:00 5.4 10 Noroeste 19 Noroeste 0 -- -- 88
2018-01-08 01:00:00 5.6 11 Oeste 18 Oeste 0 -- -- 85
2018-01-08 00:00:00 5.7 7 Oeste 14 Oeste 0 -- -- 82
2018-01-07 23:00:00 6.4 7 Oeste 15 Oeste 0 -- -- 78
2018-01-07 22:00:00 6.9 8 Oeste 15 Oeste 0 -- -- 74
2018-01-07 21:00:00 6.8 8 Oeste 13 Oeste 0 -- -- 76
2018-01-07 20:00:00 7.4 9 Oeste 13 Oeste 0 -- -- 73
2018-01-07 19:00:00 7.6 5 Sudoeste 10 Sudoeste 0 -- -- 72
2018-01-07 18:00:00 8.2 6 Oeste 18 Noroeste 0 -- -- 71
2018-01-07 17:00:00 8.8 14 Noroeste 20 Noroeste 0 -- -- 66
2018-01-07 16:00:00 9 11 Noroeste 19 Noroeste 0 -- -- 67
2018-01-07 15:00:00 7.8 11 Noroeste 21 Noroeste 0 -- -- 69
2018-01-07 14:00:00 7.1 12 Noroeste 19 Noroeste 0 -- -- 75
2018-01-07 13:00:00 6.1 11 Noroeste 27 Noroeste 0 -- -- 80
2018-01-07 12:00:00 4 14 Noroeste 24 Noroeste 0 -- -- 91
2018-01-07 11:00:00 3.7 13 Noroeste 23 Noroeste 0 -- -- 94
2018-01-07 10:00:00 2.8 14 Noroeste 24 Noroeste 0 -- -- 97
2018-01-07 09:00:00 2.5 13 Noroeste 23 Noroeste 0 -- -- 97
2018-01-07 08:00:00 2.4 14 Noroeste 23 Noroeste 0 -- -- 97
2018-01-07 07:00:00 2.4 14 Noroeste 22 Noroeste 0 -- -- 97
2018-01-07 06:00:00 2 12 Noroeste 22 Noroeste 0 -- -- 97
2018-01-07 05:00:00 2.8 13 Noroeste 21 Noroeste 0 -- -- 95
2018-01-07 04:00:00 2.7 10 Noroeste 24 Noroeste 0 -- -- 94
2018-01-07 03:00:00 3.2 14 Noroeste 23 Noroeste 0 -- -- 92
2018-01-07 02:00:00 3.8 12 Noroeste 22 Noroeste 0 -- -- 89
2018-01-07 01:00:00 4.3 15 Noroeste 28 Noroeste 0 -- -- 86
2018-01-07 00:00:00 4.3 12 Noroeste 28 Noroeste 0 -- -- 83
2018-01-06 23:00:00 4.9 15 Noroeste 28 Noroeste 0 -- -- 79
2018-01-06 22:00:00 5.7 20 Noroeste 31 Noroeste 0 -- -- 77
2018-01-06 21:00:00 6 15 Noroeste 23 Noroeste 0 -- -- 73
2018-01-06 20:00:00 6.2 8 Noroeste 25 Noroeste 0 -- -- 68
2018-01-06 19:00:00 7.7 17 Noroeste 34 Noroeste 0 -- -- 60
2018-01-06 18:00:00 8.9 22 Noroeste 41 Noroeste 0 -- -- 56
2018-01-06 17:00:00 10.3 30 Noroeste 48 Noroeste 0 -- -- 39
2018-01-06 16:00:00 10.7 27 Noroeste 46 Noroeste 0 -- -- 38
2018-01-06 15:00:00 10.4 26 Noroeste 45 Noroeste 0 -- -- 45
2018-01-06 14:00:00 9.6 27 Noroeste 40 Noroeste 0 -- -- 59
2018-01-06 13:00:00 8.8 25 Noroeste 40 Norte 0 -- -- 65
2018-01-06 12:00:00 8 20 Noroeste 44 Noroeste 0 -- -- 72
2018-01-06 11:00:00 6.6 22 Noroeste 36 Noroeste 0 -- -- 83
2018-01-06 10:00:00 5.3 19 Noroeste 28 Noroeste 0 -- -- 93
2018-01-06 09:00:00 5.5 14 Noroeste 27 Noroeste 0 -- -- 92
2018-01-06 08:00:00 5.8 15 Noroeste 28 Noroeste 0 -- -- 94
2018-01-06 07:00:00 6.2 15 Noroeste 25 Norte 0 -- -- 93
2018-01-06 06:00:00 6.6 12 Noroeste 30 Noroeste 0 -- -- 92
2018-01-06 05:00:00 7.1 15 Noroeste 27 Norte 0 -- -- 96
2018-01-06 04:00:00 7.6 18 Noroeste 31 Noroeste 0 -- -- 98
2018-01-06 03:00:00 7.9 15 Noroeste 31 Noroeste 0 -- -- 98
2018-01-06 02:00:00 8 7 Nordeste 20 Norte 0.2 -- -- 100
2018-01-06 01:00:00 7.9 13 Norte 22 Norte 1 -- -- 95
2018-01-06 00:00:00 8.2 14 Norte 28 Noroeste 1.4 -- -- 98
2018-01-05 23:00:00 9.1 15 Oeste 32 Noroeste 3.6 -- -- 96
2018-01-05 22:00:00 9.8 8 Sudoeste 18 Sudoeste 1.2 -- -- 99
2018-01-05 21:00:00 10.1 9 Sudoeste 15 Sur 0.8 -- -- 100
2018-01-05 20:00:00 10.1 0 Calma 6 Norte 0 -- -- 99
2018-01-05 19:00:00 10.3 0 Calma 8 Sudeste 3.4 -- -- 99
2018-01-05 18:00:00 10.5 0 Calma 10 Noroeste 2.8 -- -- 98
2018-01-05 17:00:00 10.2 8 Noroeste 53 Sur 9.2 -- -- 97
2018-01-05 16:00:00 13.6 35 Sudoeste 51 Sudoeste 0 -- -- 83
2018-01-05 15:00:00 13.8 32 Sudoeste 47 Sudoeste 0 -- -- 77
2018-01-05 14:00:00 14.1 28 Sudoeste 44 Sudoeste 0 -- -- 71
2018-01-05 13:00:00 13.9 24 Sur 53 Sur 0 -- -- 79
2018-01-05 12:00:00 13.8 28 Sudoeste 40 Sur 0 -- -- 76
2018-01-05 11:00:00 13.1 21 Sudoeste 31 Sudoeste 0 -- -- 78
2018-01-05 10:00:00 11.6 17 Sur 23 Sur 0 -- -- 88
2018-01-05 09:00:00 11.2 12 Sudoeste 19 Sudoeste 0 -- -- 90
2018-01-05 08:00:00 11 2 Oeste 12 Sudoeste 0 -- -- 90
2018-01-05 07:00:00 11.1 8 Sudoeste 18 Sudoeste 0 -- -- 89
2018-01-05 06:00:00 10.8 9 Sudoeste 21 Sudoeste 0 -- -- 92
2018-01-05 05:00:00 11 6 Sudoeste 14 Sudoeste 0 -- -- 92
2018-01-05 04:00:00 11.3 4 Noroeste 13 Oeste 0 -- -- 91
2018-01-05 03:00:00 11.4 4 Noroeste 13 Oeste 0 -- -- 94
2018-01-05 02:00:00 11.7 9 Oeste 15 Oeste 0 -- -- 93
2018-01-05 01:00:00 12 8 Oeste 14 Oeste 0 -- -- 93
2018-01-05 00:00:00 12.3 7 Oeste 13 Noroeste 0 -- -- 94
2018-01-04 23:00:00 12.2 8 Oeste 14 Oeste 0 -- -- 93
2018-01-04 22:00:00 12.7 5 Oeste 15 Oeste 0 -- -- 90
2018-01-04 21:00:00 13.1 6 Oeste 10 Oeste 0 -- -- 91
2018-01-04 20:00:00 13.6 5 Oeste 12 Oeste 0 -- -- 90
2018-01-04 19:00:00 14 7 Oeste 15 Oeste 0 -- -- 85
2018-01-04 18:00:00 14.4 9 Oeste 15 Oeste 0 -- -- 85
2018-01-04 17:00:00 14.7 5 Norte 12 Norte 0 -- -- 80
2018-01-04 16:00:00 14.8 6 Norte 15 Norte 0 -- -- 79
2018-01-04 15:00:00 14.1 5 Noroeste 12 Norte 0 -- -- 84
2018-01-04 14:00:00 13.5 7 Norte 20 Noroeste 0 -- -- 88
2018-01-04 13:00:00 12.7 10 Norte 17 Norte 0 -- -- 95
2018-01-04 12:00:00 12.5 7 Norte 14 Norte 0 -- -- 96
2018-01-04 11:00:00 12.4 10 Norte 18 Noroeste 0 -- -- 94
2018-01-04 10:00:00 12.4 6 Noroeste 13 Noroeste 0 -- -- 96
2018-01-04 09:00:00 12.5 6 Noroeste 11 Noroeste 0 -- -- 95
2018-01-04 08:00:00 12.6 6 Noroeste 13 Noroeste 0 -- -- 96
2018-01-04 07:00:00 12.5 7 Noroeste 14 Noroeste 0 -- -- 100
2018-01-04 06:00:00 12.4 6 Noroeste 17 Noroeste 0 -- -- 100
2018-01-04 05:00:00 12.2 9 Noroeste 17 Noroeste 0 -- -- 100
2018-01-04 04:00:00 11.7 10 Noroeste 16 Noroeste 0 -- -- 100
2018-01-04 03:00:00 11.5 9 Noroeste 14 Noroeste 0 -- -- 98
2018-01-04 02:00:00 11.7 10 Noroeste 15 Noroeste 0 -- -- 97
2018-01-04 01:00:00 12.5 9 Noroeste 19 Norte 0 -- -- 92
2018-01-04 00:00:00 12.4 9 Noroeste 12 Noroeste 0 -- -- 91
2018-01-03 23:00:00 12.6 7 Norte 14 Norte 0 -- -- 91
2018-01-03 22:00:00 12.5 9 Norte 14 Norte 0 -- -- 92
2018-01-03 21:00:00 12.6 8 Norte 14 Norte 0 -- -- 90
2018-01-03 20:00:00 13.2 8 Norte 17 Norte 0 -- -- 86
2018-01-03 19:00:00 13.3 11 Norte 20 Noroeste 0 -- -- 86
2018-01-03 18:00:00 14.3 13 Norte 31 Norte 0 -- -- 81
2018-01-03 17:00:00 14.6 20 Norte 31 Norte 0 -- -- 81
2018-01-03 16:00:00 14.3 22 Norte 37 Norte 0 -- -- 84
2018-01-03 15:00:00 15.2 20 Norte 34 Noroeste 0 -- -- 80
2018-01-03 14:00:00 16.1 18 Noroeste 29 Noroeste 0 -- -- 77
2018-01-03 13:00:00 15.7 13 Norte 23 Norte 0 -- -- 80
2018-01-03 12:00:00 14.6 10 Noroeste 18 Noroeste 0 -- -- 84
2018-01-03 11:00:00 14.1 11 Norte 18 Norte 0 -- -- 84
2018-01-03 10:00:00 12.4 10 Norte 17 Norte 0 -- -- 92
2018-01-03 09:00:00 11.6 6 Noroeste 12 Noroeste 0 -- -- 96
2018-01-03 08:00:00 11.7 3 Noroeste 5 Noroeste 0 -- -- 93
2018-01-03 07:00:00 11.9 6 Norte 16 Norte 0 -- -- 92
2018-01-03 06:00:00 11.7 10 Norte 22 Noroeste 0 -- -- 93
2018-01-03 05:00:00 11.5 12 Norte 23 Norte 0 -- -- 93
2018-01-03 04:00:00 10.5 6 Norte 15 Noroeste 0 -- -- 95
2018-01-03 03:00:00 10.1 10 Norte 20 Noroeste 0 -- -- 94
2018-01-03 02:00:00 10.1 11 Norte 17 Norte 0 -- -- 93
2018-01-03 01:00:00 10.5 10 Norte 15 Norte 0 -- -- 91
2018-01-03 00:00:00 10.2 8 Norte 18 Noroeste 0 -- -- 92
2018-01-02 23:00:00 10.7 10 Noroeste 15 Norte 0 -- -- 90
2018-01-02 22:00:00 11.4 7 Norte 15 Norte 0 -- -- 86
2018-01-02 21:00:00 11.7 10 Norte 14 Norte 0 -- -- 85
2018-01-02 20:00:00 12.2 10 Norte 20 Norte 0 -- -- 83
2018-01-02 19:00:00 13 12 Norte 22 Norte 0 -- -- 79
2018-01-02 18:00:00 14.2 11 Norte 22 Noroeste 0 -- -- 73
2018-01-02 17:00:00 15 13 Noroeste 23 Norte 0 -- -- 69
2018-01-02 16:00:00 15 15 Norte 29 Norte 0 -- -- 68
2018-01-02 15:00:00 14.9 17 Norte 31 Norte 0 -- -- 68
2018-01-02 14:00:00 14.1 19 Norte 30 Norte 0 -- -- 71
2018-01-02 13:00:00 12.9 14 Noroeste 21 Noroeste 0 -- -- 77
2018-01-02 12:00:00 11.8 9 Noroeste 18 Norte 0 -- -- 81
2018-01-02 11:00:00 9.2 6 Noroeste 13 Norte 0 -- -- 90
2018-01-02 10:00:00 7.8 7 Noroeste 14 Norte 0 -- -- 93
2018-01-02 09:00:00 7.2 11 Norte 19 Noroeste 0 -- -- 93
2018-01-02 08:00:00 7.3 10 Noroeste 15 Norte 0 -- -- 92
2018-01-02 07:00:00 7.4 8 Norte 13 Noroeste 0 -- -- 92
2018-01-02 06:00:00 7.9 9 Norte 17 Noroeste 0 -- -- 90
2018-01-02 05:00:00 7.5 11 Norte 18 Noroeste 0 -- -- 95
2018-01-02 04:00:00 8.4 12 Norte 19 Norte 0 -- -- 92
2018-01-02 03:00:00 8.6 13 Norte 19 Norte 0 -- -- 91
2018-01-02 02:00:00 8.7 8 Noroeste 15 Noroeste 0 -- -- 89
2018-01-02 01:00:00 8.6 10 Noroeste 18 Noroeste 0 -- -- 88
2018-01-02 00:00:00 9.4 11 Norte 16 Norte 0 -- -- 86
2018-01-01 23:00:00 9.5 8 Norte 13 Norte 0 -- -- 84
2018-01-01 22:00:00 10.3 8 Norte 12 Norte 0 -- -- 80
2018-01-01 21:00:00 10.3 6 Nordeste 18 Norte 0 -- -- 79
2018-01-01 20:00:00 11.3 14 Norte 21 Norte 0 -- -- 74
2018-01-01 19:00:00 11.5 9 Norte 17 Norte 0 -- -- 72
2018-01-01 18:00:00 13.1 12 Norte 24 Norte 0 -- -- 64
2018-01-01 17:00:00 14.1 12 Noroeste 26 Noroeste 0 -- -- 57
2018-01-01 16:00:00 14.4 17 Norte 28 Norte 0 -- -- 52
2018-01-01 15:00:00 14.4 14 Noroeste 26 Norte 0 -- -- 49
2018-01-01 14:00:00 13.9 13 Noroeste 22 Noroeste 0 -- -- 53
2018-01-01 13:00:00 12.8 11 Noroeste 16 Noroeste 0 -- -- 66
2018-01-01 12:00:00 10.8 10 Noroeste 15 Noroeste 0 -- -- 77
2018-01-01 11:00:00 8.7 8 Noroeste 15 Noroeste 0 -- -- 91
2018-01-01 10:00:00 6.8 8 Noroeste 14 Noroeste 0 -- -- 96
2018-01-01 09:00:00 5.8 5 Noroeste 9 Oeste 0 -- -- 98
2018-01-01 08:00:00 5.5 5 Oeste 14 Noroeste 0 -- -- 98
2018-01-01 07:00:00 6.3 5 Oeste 16 Noroeste 0 -- -- 94
2018-01-01 06:00:00 7.7 7 Oeste 14 Sudoeste 0 -- -- 86
2018-01-01 05:00:00 7.1 6 Sudoeste 13 Sudoeste 0 -- -- 90
2018-01-01 04:00:00 8.3 6 Sudoeste 15 Este 0 -- -- 85
2018-01-01 03:00:00 9.1 13 Este 19 Este 0 -- -- 82
2018-01-01 02:00:00 9 12 Nordeste 22 Nordeste 0 -- -- 84
2018-01-01 01:00:00 9.5 4 Norte 18 Norte 0 -- -- 82
2018-01-01 00:00:00 9.3 12 Norte 19 Norte 0 -- -- 87
2017-12-31 23:00:00 9.8 5 Noroeste 19 Noroeste 0 -- -- 92
2017-12-31 22:00:00 11.2 13 Noroeste 21 Noroeste 0 -- -- 90
2017-12-31 21:00:00 11.4 9 Noroeste 19 Noroeste 0 -- -- 96
2017-12-31 20:00:00 11.8 9 Noroeste 25 Noroeste 0 -- -- 94
2017-12-31 19:00:00 13.2 15 Noroeste 36 Oeste 0 -- -- 88
2017-12-31 18:00:00 15.2 23 Noroeste 41 Oeste 0 -- -- 71
2017-12-31 17:00:00 15.8 14 Oeste 34 Oeste 0 -- -- 68
2017-12-31 16:00:00 16.2 15 Oeste 28 Sudoeste 0 -- -- 67
2017-12-31 15:00:00 16.2 17 Sudoeste 30 Oeste 0 -- -- 68
2017-12-31 14:00:00 15.9 19 Sudoeste 32 Oeste 0 -- -- 70
2017-12-31 13:00:00 14.7 16 Oeste 25 Sudoeste 0 -- -- 74
2017-12-31 12:00:00 14.1 11 Sudoeste 17 Sudoeste 0 -- -- 78
2017-12-31 11:00:00 13.2 7 Oeste 10 Oeste 0 -- -- 83
2017-12-31 10:00:00 12.1 5 Sudoeste 8 Oeste 0 -- -- 87
2017-12-31 09:00:00 10.5 5 Oeste 14 Noroeste 0 -- -- 93
2017-12-31 08:00:00 10 8 Oeste 15 Oeste 0 -- -- 93
2017-12-31 07:00:00 9.4 3 Oeste 14 Noroeste 0 -- -- 94
2017-12-31 06:00:00 10.9 6 Oeste 9 Noroeste 0 -- -- 85
2017-12-31 05:00:00 11.4 2 Nordeste 6 Norte 0 -- -- 83
2017-12-31 04:00:00 11.2 5 Norte 8 Noroeste 0 -- -- 85
2017-12-31 03:00:00 10.8 7 Noroeste 10 Noroeste 0 -- -- 87
2017-12-31 02:00:00 10 8 Noroeste 11 Noroeste 0 -- -- 93
2017-12-31 01:00:00 10.9 7 Noroeste 9 Noroeste 0 -- -- 88